SAS53F ENGM-ENTC
Flight info
| Callsign | SAS53F |
|---|---|
| Flight time | 1h 45m |
| Altitude | 37000 |
| Route | RIBBE DCT GIGNI DCT SOMUB DCT PENNO DCT ATWEG |
| Aircraft | A320/M-SDE3FGHIJ1RWXYZ/ALB1 |
Departure
| Time | 2026-04-30 09:53 |
|---|---|
| Airport | Oslo-Gardermoen International Airport (ENGM) |
Arrival
| Time | 2026-04-30 11:38 |
|---|---|
| Airport | Tromsø Airport (ENTC) |
| Time | Latitude | Longitude | Altitude | Speed | Heading |
|---|---|---|---|---|---|
| 2026-04-30 09:32 | 60.19583 | 11.09275 | 685 ft | 0 kts | 196° |
| 2026-04-30 09:45 | 60.19584 | 11.09275 | 685 ft | 2 kts | 196° |
| 2026-04-30 09:45 | 60.19608 | 11.09289 | 684 ft | 4 kts | 196° |
| 2026-04-30 09:46 | 60.19625 | 11.09299 | 685 ft | 0 kts | 196° |
| 2026-04-30 09:48 | 60.19623 | 11.09297 | 684 ft | 0 kts | 201° |
| 2026-04-30 09:48 | 60.19630 | 11.09282 | 685 ft | 2 kts | 336° |
| 2026-04-30 09:49 | 60.19659 | 11.09266 | 684 ft | 6 kts | 344° |
| 2026-04-30 09:49 | 60.19706 | 11.09218 | 682 ft | 9 kts | 304° |
| 2026-04-30 09:49 | 60.19728 | 11.09081 | 682 ft | 11 kts | 287° |
| 2026-04-30 09:49 | 60.19753 | 11.08906 | 677 ft | 16 kts | 286° |
| 2026-04-30 09:50 | 60.19786 | 11.08717 | 675 ft | 11 kts | 310° |
| 2026-04-30 09:50 | 60.19855 | 11.08719 | 679 ft | 15 kts | 18° |
| 2026-04-30 09:50 | 60.20011 | 11.08810 | 680 ft | 26 kts | 16° |
| 2026-04-30 09:50 | 60.20193 | 11.08915 | 681 ft | 27 kts | 16° |
| 2026-04-30 09:51 | 60.20378 | 11.09023 | 680 ft | 29 kts | 15° |
| 2026-04-30 09:51 | 60.20530 | 11.09109 | 682 ft | 20 kts | 15° |
| 2026-04-30 09:51 | 60.20634 | 11.09126 | 681 ft | 14 kts | 317° |
| 2026-04-30 09:51 | 60.20664 | 11.08921 | 677 ft | 17 kts | 284° |
| 2026-04-30 09:52 | 60.20698 | 11.08694 | 678 ft | 10 kts | 287° |
| 2026-04-30 09:52 | 60.20657 | 11.08614 | 679 ft | 11 kts | 195° |
| 2026-04-30 09:52 | 60.20412 | 11.08479 | 678 ft | 71 kts | 196° |
| 2026-04-30 09:52 | 60.19756 | 11.08100 | 673 ft | 124 kts | 196° |
| 2026-04-30 09:53 | 60.18777 | 11.07545 | 753 ft | 157 kts | 195° |
| 2026-04-30 09:53 | 60.17774 | 11.06927 | 1372 ft | 152 kts | 197° |
| 2026-04-30 09:53 | 60.16818 | 11.06037 | 1910 ft | 155 kts | 215° |
| 2026-04-30 09:53 | 60.16067 | 11.04336 | 2211 ft | 176 kts | 240° |
| 2026-04-30 09:54 | 60.15548 | 11.01951 | 2479 ft | 198 kts | 246° |
| 2026-04-30 09:54 | 60.14971 | 10.99258 | 2786 ft | 220 kts | 246° |
| 2026-04-30 09:54 | 60.14378 | 10.96251 | 3094 ft | 245 kts | 257° |
| 2026-04-30 09:54 | 60.14360 | 10.92738 | 3679 ft | 259 kts | 281° |
| 2026-04-30 09:55 | 60.14714 | 10.89166 | 4574 ft | 262 kts | 281° |
| 2026-04-30 09:55 | 60.15056 | 10.85563 | 5486 ft | 264 kts | 282° |
| 2026-04-30 09:55 | 60.15750 | 10.82176 | 6359 ft | 267 kts | 307° |
| 2026-04-30 09:55 | 60.17217 | 10.79897 | 7195 ft | 273 kts | 338° |
| 2026-04-30 09:56 | 60.19094 | 10.79185 | 8019 ft | 277 kts | 352° |
| 2026-04-30 09:56 | 60.21032 | 10.78991 | 8820 ft | 282 kts | 3° |
| 2026-04-30 09:56 | 60.22319 | 10.79453 | 9343 ft | 286 kts | 14° |
| 2026-04-30 09:56 | 60.24152 | 10.81119 | 10108 ft | 293 kts | 31° |
| 2026-04-30 09:57 | 60.25715 | 10.83807 | 10806 ft | 302 kts | 42° |
| 2026-04-30 09:57 | 60.27259 | 10.86926 | 11003 ft | 325 kts | 42° |
| 2026-04-30 09:57 | 60.28880 | 10.90225 | 11493 ft | 335 kts | 42° |
| 2026-04-30 09:57 | 60.30526 | 10.93591 | 12175 ft | 338 kts | 42° |
| 2026-04-30 09:58 | 60.32179 | 10.96983 | 12898 ft | 340 kts | 42° |
| 2026-04-30 09:58 | 60.33846 | 11.00397 | 13562 ft | 343 kts | 42° |
| 2026-04-30 09:58 | 60.35526 | 11.03829 | 14231 ft | 345 kts | 41° |
| 2026-04-30 09:58 | 60.37218 | 11.07289 | 14888 ft | 347 kts | 41° |
| 2026-04-30 09:59 | 60.40628 | 11.14288 | 16141 ft | 352 kts | 41° |
| 2026-04-30 09:59 | 60.44198 | 11.21096 | 17320 ft | 352 kts | 31° |
| 2026-04-30 10:00 | 60.48586 | 11.25299 | 18491 ft | 350 kts | 16° |
| 2026-04-30 10:00 | 60.50897 | 11.26922 | 19063 ft | 353 kts | 16° |
| 2026-04-30 10:01 | 60.55580 | 11.30245 | 20195 ft | 359 kts | 16° |
| 2026-04-30 10:01 | 60.57948 | 11.31934 | 20756 ft | 362 kts | 16° |
| 2026-04-30 10:01 | 60.60337 | 11.33635 | 21284 ft | 365 kts | 16° |
| 2026-04-30 10:02 | 60.65177 | 11.37088 | 22290 ft | 371 kts | 16° |
| 2026-04-30 10:02 | 60.67624 | 11.38843 | 22778 ft | 374 kts | 16° |
| 2026-04-30 10:02 | 60.70086 | 11.40614 | 23248 ft | 377 kts | 16° |
| 2026-04-30 10:02 | 60.72572 | 11.42405 | 23710 ft | 380 kts | 16° |
| 2026-04-30 10:03 | 60.75108 | 11.43905 | 24146 ft | 380 kts | 8° |
| 2026-04-30 10:03 | 60.77731 | 11.44524 | 24575 ft | 380 kts | 0° |
| 2026-04-30 10:03 | 60.80381 | 11.44837 | 25001 ft | 383 kts | 0° |
| 2026-04-30 10:03 | 60.83053 | 11.45156 | 25402 ft | 386 kts | 1° |
| 2026-04-30 10:04 | 60.85743 | 11.45482 | 25794 ft | 389 kts | 1° |
| 2026-04-30 10:04 | 60.88448 | 11.45816 | 26188 ft | 391 kts | 1° |
| 2026-04-30 10:04 | 60.91174 | 11.46155 | 26551 ft | 394 kts | 1° |
| 2026-04-30 10:04 | 60.93918 | 11.46498 | 26901 ft | 396 kts | 1° |
| 2026-04-30 10:05 | 60.96642 | 11.46833 | 27238 ft | 399 kts | 1° |
| 2026-04-30 10:05 | 60.99417 | 11.47176 | 27583 ft | 401 kts | 1° |
| 2026-04-30 10:05 | 61.02209 | 11.47524 | 27930 ft | 403 kts | 1° |
| 2026-04-30 10:05 | 61.05014 | 11.47871 | 28258 ft | 406 kts | 0° |
| 2026-04-30 10:06 | 61.07841 | 11.48215 | 28597 ft | 408 kts | 0° |
| 2026-04-30 10:06 | 61.10683 | 11.48406 | 28934 ft | 409 kts | 358° |
| 2026-04-30 10:06 | 61.13531 | 11.48441 | 29249 ft | 410 kts | 357° |
| 2026-04-30 10:06 | 61.16392 | 11.48391 | 29558 ft | 412 kts | 356° |
| 2026-04-30 10:07 | 61.19269 | 11.48318 | 29870 ft | 414 kts | 356° |
| 2026-04-30 10:07 | 61.22162 | 11.48260 | 30174 ft | 417 kts | 357° |
| 2026-04-30 10:07 | 61.25063 | 11.48232 | 30466 ft | 419 kts | 357° |
| 2026-04-30 10:07 | 61.27984 | 11.48235 | 30775 ft | 420 kts | 357° |
| 2026-04-30 10:08 | 61.30914 | 11.48256 | 31169 ft | 420 kts | 357° |
| 2026-04-30 10:08 | 61.33828 | 11.48280 | 31584 ft | 419 kts | 357° |
| 2026-04-30 10:08 | 61.36734 | 11.48302 | 31983 ft | 418 kts | 357° |
| 2026-04-30 10:08 | 61.39636 | 11.48316 | 32397 ft | 416 kts | 357° |
| 2026-04-30 10:09 | 61.42527 | 11.48328 | 32811 ft | 415 kts | 357° |
| 2026-04-30 10:09 | 61.45408 | 11.48344 | 33216 ft | 414 kts | 357° |
| 2026-04-30 10:09 | 61.48287 | 11.48351 | 33595 ft | 413 kts | 357° |
| 2026-04-30 10:09 | 61.51153 | 11.48355 | 33965 ft | 412 kts | 357° |
| 2026-04-30 10:10 | 61.54017 | 11.48360 | 34337 ft | 411 kts | 357° |
| 2026-04-30 10:10 | 61.56872 | 11.48371 | 34700 ft | 410 kts | 357° |
| 2026-04-30 10:10 | 61.59727 | 11.48385 | 35039 ft | 410 kts | 357° |
| 2026-04-30 10:10 | 61.62574 | 11.48395 | 35364 ft | 409 kts | 357° |
| 2026-04-30 10:11 | 61.65421 | 11.48403 | 35676 ft | 409 kts | 357° |
| 2026-04-30 10:11 | 61.68262 | 11.48413 | 35983 ft | 408 kts | 357° |
| 2026-04-30 10:11 | 61.71101 | 11.48429 | 36264 ft | 408 kts | 357° |
| 2026-04-30 10:11 | 61.73940 | 11.48443 | 36528 ft | 408 kts | 357° |
| 2026-04-30 10:12 | 61.76781 | 11.48451 | 36780 ft | 408 kts | 357° |
| 2026-04-30 10:12 | 61.79610 | 11.48458 | 37109 ft | 405 kts | 357° |
| 2026-04-30 10:12 | 61.82419 | 11.48471 | 37359 ft | 403 kts | 357° |
| 2026-04-30 10:13 | 61.88039 | 11.48495 | 37404 ft | 405 kts | 357° |
| 2026-04-30 10:13 | 61.93688 | 11.48519 | 37403 ft | 406 kts | 357° |
| 2026-04-30 10:14 | 61.99328 | 11.48531 | 37400 ft | 405 kts | 358° |
| 2026-04-30 10:14 | 62.07791 | 11.50280 | 37404 ft | 408 kts | 2° |
| 2026-04-30 10:15 | 62.13432 | 11.51576 | 37407 ft | 408 kts | 2° |
| 2026-04-30 10:15 | 62.19076 | 11.52876 | 37412 ft | 408 kts | 2° |
| 2026-04-30 10:16 | 62.24722 | 11.54177 | 37417 ft | 408 kts | 2° |
| 2026-04-30 10:17 | 62.33192 | 11.56125 | 37420 ft | 408 kts | 2° |
| 2026-04-30 10:17 | 62.41659 | 11.58092 | 37422 ft | 408 kts | 2° |
| 2026-04-30 10:18 | 62.47275 | 11.59406 | 37422 ft | 409 kts | 2° |
| 2026-04-30 10:19 | 62.55769 | 11.61391 | 37424 ft | 410 kts | 2° |
| 2026-04-30 10:19 | 62.61446 | 11.62720 | 37426 ft | 410 kts | 2° |
| 2026-04-30 10:20 | 62.67117 | 11.64070 | 37428 ft | 410 kts | 2° |
| 2026-04-30 10:20 | 62.75625 | 11.66089 | 37427 ft | 410 kts | 2° |
| 2026-04-30 10:21 | 62.81304 | 11.67443 | 37426 ft | 411 kts | 2° |
| 2026-04-30 10:21 | 62.86990 | 11.68795 | 37421 ft | 411 kts | 2° |
| 2026-04-30 10:22 | 62.92674 | 11.70158 | 37416 ft | 411 kts | 2° |
| 2026-04-30 10:22 | 62.98359 | 11.71541 | 37417 ft | 411 kts | 2° |
| 2026-04-30 10:23 | 63.04049 | 11.72929 | 37417 ft | 412 kts | 2° |
| 2026-04-30 10:23 | 63.09746 | 11.74308 | 37417 ft | 412 kts | 2° |
| 2026-04-30 10:24 | 63.15436 | 11.75701 | 37414 ft | 412 kts | 2° |
| 2026-04-30 10:24 | 63.21126 | 11.77100 | 37412 ft | 412 kts | 2° |
| 2026-04-30 10:25 | 63.26819 | 11.78502 | 37411 ft | 412 kts | 2° |
| 2026-04-30 10:25 | 63.32518 | 11.79924 | 37411 ft | 412 kts | 2° |
| 2026-04-30 10:26 | 63.38117 | 11.82964 | 37413 ft | 419 kts | 15° |
| 2026-04-30 10:26 | 63.43624 | 11.87254 | 37410 ft | 419 kts | 14° |
| 2026-04-30 10:27 | 63.49131 | 11.91564 | 37411 ft | 420 kts | 15° |
| 2026-04-30 10:27 | 63.54648 | 11.95915 | 37414 ft | 421 kts | 15° |
| 2026-04-30 10:28 | 63.60169 | 12.00264 | 37417 ft | 420 kts | 14° |
| 2026-04-30 10:28 | 63.65692 | 12.04632 | 37422 ft | 420 kts | 15° |
| 2026-04-30 10:29 | 63.71207 | 12.09011 | 37424 ft | 420 kts | 15° |
| 2026-04-30 10:29 | 63.76711 | 12.13413 | 37419 ft | 420 kts | 15° |
| 2026-04-30 10:30 | 63.82213 | 12.17827 | 37418 ft | 419 kts | 15° |
| 2026-04-30 10:30 | 63.87714 | 12.22250 | 37409 ft | 419 kts | 15° |
| 2026-04-30 10:31 | 63.93207 | 12.26683 | 37406 ft | 419 kts | 15° |
| 2026-04-30 10:31 | 63.98701 | 12.31141 | 37404 ft | 419 kts | 15° |
| 2026-04-30 10:32 | 64.04160 | 12.35591 | 37402 ft | 419 kts | 15° |
| 2026-04-30 10:32 | 64.09652 | 12.40099 | 37400 ft | 420 kts | 15° |
| 2026-04-30 10:33 | 64.15149 | 12.44618 | 37399 ft | 420 kts | 15° |
| 2026-04-30 10:33 | 64.20651 | 12.49155 | 37400 ft | 420 kts | 15° |
| 2026-04-30 10:34 | 64.26154 | 12.53720 | 37404 ft | 420 kts | 15° |
| 2026-04-30 10:34 | 64.31656 | 12.58298 | 37401 ft | 420 kts | 15° |
| 2026-04-30 10:35 | 64.37187 | 12.62917 | 37397 ft | 420 kts | 15° |
| 2026-04-30 10:35 | 64.42685 | 12.67537 | 37399 ft | 420 kts | 15° |
| 2026-04-30 10:36 | 64.48140 | 12.72136 | 37392 ft | 420 kts | 15° |
| 2026-04-30 10:36 | 64.53626 | 12.76791 | 37392 ft | 420 kts | 15° |
| 2026-04-30 10:37 | 64.59101 | 12.81462 | 37387 ft | 419 kts | 15° |
| 2026-04-30 10:37 | 64.64578 | 12.86134 | 37390 ft | 419 kts | 14° |
| 2026-04-30 10:38 | 64.70057 | 12.90816 | 37390 ft | 419 kts | 14° |
| 2026-04-30 10:38 | 64.75535 | 12.95538 | 37384 ft | 419 kts | 14° |
| 2026-04-30 10:39 | 64.81008 | 13.00281 | 37384 ft | 419 kts | 14° |
| 2026-04-30 10:39 | 64.86483 | 13.05038 | 37382 ft | 420 kts | 14° |
| 2026-04-30 10:40 | 64.91962 | 13.09809 | 37374 ft | 420 kts | 14° |
| 2026-04-30 10:40 | 64.96515 | 13.13796 | 37381 ft | 421 kts | 14° |
| 2026-04-30 10:41 | 65.02000 | 13.18623 | 37377 ft | 420 kts | 14° |
| 2026-04-30 10:41 | 65.07481 | 13.23476 | 37367 ft | 421 kts | 15° |
| 2026-04-30 10:42 | 65.12962 | 13.28346 | 37367 ft | 421 kts | 14° |
| 2026-04-30 10:42 | 65.18448 | 13.33235 | 37361 ft | 421 kts | 14° |
| 2026-04-30 10:43 | 65.23931 | 13.38153 | 37362 ft | 421 kts | 15° |
| 2026-04-30 10:43 | 65.29418 | 13.43094 | 37351 ft | 421 kts | 14° |
| 2026-04-30 10:44 | 65.34901 | 13.48048 | 37349 ft | 421 kts | 14° |
| 2026-04-30 10:44 | 65.40384 | 13.53020 | 37345 ft | 422 kts | 15° |
| 2026-04-30 10:45 | 65.45871 | 13.58022 | 37344 ft | 421 kts | 14° |
| 2026-04-30 10:45 | 65.51357 | 13.63049 | 37343 ft | 422 kts | 14° |
| 2026-04-30 10:46 | 65.56845 | 13.68099 | 37344 ft | 422 kts | 14° |
| 2026-04-30 10:46 | 65.62340 | 13.73166 | 37344 ft | 423 kts | 15° |
| 2026-04-30 10:47 | 65.67836 | 13.78263 | 37346 ft | 423 kts | 14° |
| 2026-04-30 10:47 | 65.73328 | 13.83378 | 37347 ft | 423 kts | 14° |
| 2026-04-30 10:48 | 65.78814 | 13.88524 | 37348 ft | 423 kts | 15° |
| 2026-04-30 10:48 | 65.84314 | 13.93703 | 37340 ft | 424 kts | 14° |
| 2026-04-30 10:49 | 65.89814 | 13.98903 | 37330 ft | 424 kts | 15° |
| 2026-04-30 10:49 | 65.95311 | 14.04124 | 37326 ft | 424 kts | 15° |
| 2026-04-30 10:50 | 66.00805 | 14.09372 | 37323 ft | 424 kts | 15° |
| 2026-04-30 10:50 | 66.06257 | 14.14609 | 37316 ft | 424 kts | 15° |
| 2026-04-30 10:51 | 66.11747 | 14.19880 | 37313 ft | 424 kts | 15° |
| 2026-04-30 10:51 | 66.17238 | 14.25199 | 37313 ft | 424 kts | 15° |
| 2026-04-30 10:52 | 66.22766 | 14.30584 | 37313 ft | 424 kts | 15° |
| 2026-04-30 10:52 | 66.28254 | 14.35935 | 37317 ft | 424 kts | 15° |
| 2026-04-30 10:53 | 66.33739 | 14.41301 | 37322 ft | 423 kts | 15° |
| 2026-04-30 10:53 | 66.39216 | 14.46705 | 37323 ft | 423 kts | 15° |
| 2026-04-30 10:54 | 66.44688 | 14.52146 | 37323 ft | 423 kts | 15° |
| 2026-04-30 10:54 | 66.50115 | 14.57559 | 37319 ft | 423 kts | 14° |
| 2026-04-30 10:55 | 66.55578 | 14.63014 | 37319 ft | 423 kts | 14° |
| 2026-04-30 10:55 | 66.61043 | 14.68492 | 37311 ft | 422 kts | 14° |
| 2026-04-30 10:56 | 66.66498 | 14.73991 | 37308 ft | 422 kts | 14° |
| 2026-04-30 10:56 | 66.71946 | 14.79513 | 37300 ft | 422 kts | 14° |
| 2026-04-30 10:57 | 66.77384 | 14.85060 | 37292 ft | 421 kts | 14° |
| 2026-04-30 10:57 | 66.82808 | 14.90626 | 37287 ft | 421 kts | 14° |
| 2026-04-30 10:58 | 66.88233 | 14.96206 | 37279 ft | 421 kts | 14° |
| 2026-04-30 10:58 | 66.93652 | 15.01802 | 37272 ft | 420 kts | 14° |
| 2026-04-30 10:59 | 66.99065 | 15.07433 | 37264 ft | 420 kts | 14° |
| 2026-04-30 10:59 | 67.04471 | 15.13075 | 37261 ft | 420 kts | 14° |
| 2026-04-30 11:00 | 67.09872 | 15.18744 | 37252 ft | 419 kts | 14° |
| 2026-04-30 11:00 | 67.15269 | 15.24414 | 37248 ft | 419 kts | 14° |
| 2026-04-30 11:01 | 67.20662 | 15.30130 | 37243 ft | 419 kts | 14° |
| 2026-04-30 11:01 | 67.26052 | 15.35879 | 37238 ft | 419 kts | 14° |
| 2026-04-30 11:02 | 67.31442 | 15.41643 | 37240 ft | 419 kts | 14° |
| 2026-04-30 11:02 | 67.36830 | 15.47428 | 37233 ft | 419 kts | 14° |
| 2026-04-30 11:03 | 67.42216 | 15.53247 | 37224 ft | 419 kts | 14° |
| 2026-04-30 11:04 | 67.50267 | 15.62003 | 37221 ft | 420 kts | 14° |
| 2026-04-30 11:04 | 67.55659 | 15.67880 | 37215 ft | 420 kts | 14° |
| 2026-04-30 11:05 | 67.61054 | 15.73811 | 37206 ft | 420 kts | 14° |
| 2026-04-30 11:05 | 67.66446 | 15.79768 | 37207 ft | 420 kts | 14° |
| 2026-04-30 11:06 | 67.71833 | 15.85754 | 37199 ft | 420 kts | 14° |
| 2026-04-30 11:06 | 67.77214 | 15.91756 | 37178 ft | 420 kts | 14° |
| 2026-04-30 11:07 | 67.82599 | 15.97745 | 37193 ft | 420 kts | 14° |
| 2026-04-30 11:07 | 67.87973 | 16.03804 | 37183 ft | 419 kts | 14° |
| 2026-04-30 11:08 | 67.93334 | 16.09938 | 37174 ft | 421 kts | 17° |
| 2026-04-30 11:08 | 67.98550 | 16.17390 | 37173 ft | 426 kts | 20° |
| 2026-04-30 11:09 | 68.03746 | 16.24959 | 37168 ft | 425 kts | 20° |
| 2026-04-30 11:09 | 68.08937 | 16.32570 | 37154 ft | 425 kts | 20° |
| 2026-04-30 11:10 | 68.14113 | 16.40223 | 37149 ft | 425 kts | 20° |
| 2026-04-30 11:10 | 68.19299 | 16.47903 | 36821 ft | 425 kts | 20° |
| 2026-04-30 11:10 | 68.21889 | 16.51757 | 36573 ft | 425 kts | 20° |
| 2026-04-30 11:11 | 68.24471 | 16.55612 | 36328 ft | 424 kts | 20° |
| 2026-04-30 11:11 | 68.27053 | 16.59476 | 36075 ft | 425 kts | 20° |
| 2026-04-30 11:11 | 68.29653 | 16.63368 | 35825 ft | 428 kts | 19° |
| 2026-04-30 11:11 | 68.32262 | 16.67282 | 35576 ft | 429 kts | 19° |
| 2026-04-30 11:12 | 68.34868 | 16.71200 | 35324 ft | 429 kts | 19° |
| 2026-04-30 11:12 | 68.37435 | 16.75072 | 35076 ft | 427 kts | 19° |
| 2026-04-30 11:12 | 68.40016 | 16.78989 | 34823 ft | 423 kts | 19° |
| 2026-04-30 11:12 | 68.42579 | 16.82893 | 34585 ft | 420 kts | 18° |
| 2026-04-30 11:13 | 68.45116 | 16.86766 | 34329 ft | 416 kts | 18° |
| 2026-04-30 11:13 | 68.47630 | 16.90617 | 34078 ft | 413 kts | 18° |
| 2026-04-30 11:13 | 68.50114 | 16.94446 | 33720 ft | 408 kts | 18° |
| 2026-04-30 11:13 | 68.52578 | 16.98245 | 33262 ft | 405 kts | 17° |
| 2026-04-30 11:14 | 68.55009 | 17.01990 | 32803 ft | 398 kts | 17° |
| 2026-04-30 11:14 | 68.57409 | 17.05686 | 32349 ft | 394 kts | 17° |
| 2026-04-30 11:14 | 68.59788 | 17.09359 | 31891 ft | 392 kts | 17° |
| 2026-04-30 11:14 | 68.62158 | 17.13022 | 31445 ft | 391 kts | 17° |
| 2026-04-30 11:15 | 68.64519 | 17.16677 | 31001 ft | 388 kts | 17° |
| 2026-04-30 11:15 | 68.66861 | 17.20319 | 30558 ft | 386 kts | 17° |
| 2026-04-30 11:15 | 68.69186 | 17.23949 | 30120 ft | 384 kts | 17° |
| 2026-04-30 11:15 | 68.71502 | 17.27577 | 29694 ft | 382 kts | 17° |
| 2026-04-30 11:16 | 68.73802 | 17.31192 | 29270 ft | 380 kts | 17° |
| 2026-04-30 11:16 | 68.76096 | 17.34805 | 28853 ft | 378 kts | 17° |
| 2026-04-30 11:16 | 68.78373 | 17.38396 | 28442 ft | 377 kts | 17° |
| 2026-04-30 11:16 | 68.80655 | 17.41991 | 28045 ft | 377 kts | 17° |
| 2026-04-30 11:17 | 68.82935 | 17.45582 | 27633 ft | 377 kts | 17° |
| 2026-04-30 11:17 | 68.85206 | 17.49178 | 27249 ft | 375 kts | 18° |
| 2026-04-30 11:17 | 68.87460 | 17.52761 | 26857 ft | 373 kts | 18° |
| 2026-04-30 11:17 | 68.89706 | 17.56345 | 26471 ft | 371 kts | 18° |
| 2026-04-30 11:18 | 68.91937 | 17.59920 | 26068 ft | 369 kts | 18° |
| 2026-04-30 11:18 | 68.96320 | 17.66977 | 25291 ft | 361 kts | 18° |
| 2026-04-30 11:18 | 68.98494 | 17.70482 | 24885 ft | 360 kts | 18° |
| 2026-04-30 11:19 | 69.00651 | 17.73971 | 24488 ft | 358 kts | 18° |
| 2026-04-30 11:19 | 69.02804 | 17.77465 | 24084 ft | 358 kts | 19° |
| 2026-04-30 11:19 | 69.04965 | 17.80855 | 23653 ft | 352 kts | 14° |
| 2026-04-30 11:19 | 69.07190 | 17.83331 | 23263 ft | 338 kts | 6° |
| 2026-04-30 11:20 | 69.09437 | 17.84767 | 22892 ft | 326 kts | 359° |
| 2026-04-30 11:20 | 69.11670 | 17.85777 | 22531 ft | 324 kts | 359° |
| 2026-04-30 11:20 | 69.13883 | 17.86793 | 22168 ft | 321 kts | 359° |
| 2026-04-30 11:20 | 69.16083 | 17.87814 | 21809 ft | 318 kts | 359° |
| 2026-04-30 11:21 | 69.18253 | 17.88831 | 21452 ft | 314 kts | 359° |
| 2026-04-30 11:21 | 69.20394 | 17.89834 | 21099 ft | 311 kts | 359° |
| 2026-04-30 11:21 | 69.22522 | 17.90827 | 20746 ft | 308 kts | 359° |
| 2026-04-30 11:21 | 69.24630 | 17.91811 | 20396 ft | 306 kts | 359° |
| 2026-04-30 11:22 | 69.26720 | 17.92788 | 20048 ft | 303 kts | 359° |
| 2026-04-30 11:22 | 69.28795 | 17.93760 | 19707 ft | 301 kts | 359° |
| 2026-04-30 11:22 | 69.30855 | 17.94731 | 19366 ft | 299 kts | 359° |
| 2026-04-30 11:22 | 69.32903 | 17.95705 | 19025 ft | 297 kts | 359° |
| 2026-04-30 11:23 | 69.34938 | 17.96670 | 18684 ft | 296 kts | 359° |
| 2026-04-30 11:23 | 69.36965 | 17.97630 | 18336 ft | 295 kts | 359° |
| 2026-04-30 11:23 | 69.40941 | 18.01328 | 17621 ft | 309 kts | 17° |
| 2026-04-30 11:24 | 69.42865 | 18.04037 | 17256 ft | 310 kts | 17° |
| 2026-04-30 11:24 | 69.44797 | 18.06754 | 16890 ft | 310 kts | 17° |
| 2026-04-30 11:24 | 69.46730 | 18.09472 | 16521 ft | 310 kts | 17° |
| 2026-04-30 11:25 | 69.49938 | 18.13995 | 15920 ft | 309 kts | 18° |
| 2026-04-30 11:25 | 69.51863 | 18.16716 | 15552 ft | 309 kts | 18° |
| 2026-04-30 11:25 | 69.55694 | 18.22155 | 14826 ft | 306 kts | 18° |
| 2026-04-30 11:26 | 69.59505 | 18.27563 | 14118 ft | 306 kts | 18° |
| 2026-04-30 11:26 | 69.61416 | 18.30289 | 13752 ft | 307 kts | 19° |
| 2026-04-30 11:26 | 69.63323 | 18.33022 | 13392 ft | 306 kts | 19° |
| 2026-04-30 11:27 | 69.65213 | 18.35740 | 13047 ft | 304 kts | 19° |
| 2026-04-30 11:27 | 69.67098 | 18.38453 | 12690 ft | 302 kts | 19° |
| 2026-04-30 11:27 | 69.68972 | 18.41158 | 12341 ft | 301 kts | 19° |
| 2026-04-30 11:27 | 69.70840 | 18.43853 | 11987 ft | 300 kts | 20° |
| 2026-04-30 11:28 | 69.74539 | 18.49207 | 11302 ft | 294 kts | 20° |
| 2026-04-30 11:28 | 69.76364 | 18.51858 | 10956 ft | 294 kts | 20° |
| 2026-04-30 11:28 | 69.78201 | 18.54522 | 10606 ft | 296 kts | 20° |
| 2026-04-30 11:29 | 69.80049 | 18.57204 | 10255 ft | 297 kts | 20° |
| 2026-04-30 11:29 | 69.81892 | 18.59894 | 9903 ft | 297 kts | 21° |
| 2026-04-30 11:29 | 69.85576 | 18.65283 | 9204 ft | 296 kts | 21° |
| 2026-04-30 11:30 | 69.89270 | 18.70696 | 8497 ft | 299 kts | 21° |
| 2026-04-30 11:30 | 69.91101 | 18.73408 | 8328 ft | 290 kts | 22° |
| 2026-04-30 11:30 | 69.92874 | 18.76055 | 8202 ft | 284 kts | 23° |
| 2026-04-30 11:31 | 69.94419 | 18.79598 | 8073 ft | 284 kts | 48° |
| 2026-04-30 11:31 | 69.95311 | 18.84641 | 7943 ft | 280 kts | 75° |
| 2026-04-30 11:31 | 69.95420 | 18.90223 | 7713 ft | 276 kts | 101° |
| 2026-04-30 11:31 | 69.95021 | 18.95661 | 7237 ft | 274 kts | 104° |
| 2026-04-30 11:32 | 69.94572 | 19.01060 | 6621 ft | 277 kts | 110° |
| 2026-04-30 11:32 | 69.93536 | 19.05571 | 6155 ft | 262 kts | 150° |
| 2026-04-30 11:32 | 69.91954 | 19.07426 | 5811 ft | 238 kts | 184° |
| 2026-04-30 11:33 | 69.88913 | 19.05793 | 5201 ft | 214 kts | 199° |
| 2026-04-30 11:33 | 69.87491 | 19.04815 | 4876 ft | 206 kts | 199° |
| 2026-04-30 11:33 | 69.86122 | 19.03886 | 4532 ft | 198 kts | 198° |
| 2026-04-30 11:33 | 69.84804 | 19.02994 | 4231 ft | 191 kts | 198° |
| 2026-04-30 11:34 | 69.83513 | 19.02115 | 3873 ft | 189 kts | 198° |
| 2026-04-30 11:34 | 69.82259 | 19.01263 | 3533 ft | 182 kts | 197° |
| 2026-04-30 11:34 | 69.81072 | 19.00462 | 3216 ft | 174 kts | 197° |
| 2026-04-30 11:34 | 69.79947 | 18.99702 | 2926 ft | 157 kts | 196° |
| 2026-04-30 11:35 | 69.78943 | 18.99025 | 2670 ft | 139 kts | 196° |
| 2026-04-30 11:35 | 69.78037 | 18.98413 | 2429 ft | 131 kts | 196° |
| 2026-04-30 11:35 | 69.77157 | 18.97819 | 2201 ft | 129 kts | 195° |
| 2026-04-30 11:35 | 69.76289 | 18.97233 | 1980 ft | 128 kts | 195° |
| 2026-04-30 11:36 | 69.75427 | 18.96651 | 1739 ft | 127 kts | 194° |
| 2026-04-30 11:36 | 69.74572 | 18.96077 | 1521 ft | 126 kts | 195° |
| 2026-04-30 11:36 | 69.73720 | 18.95505 | 1299 ft | 125 kts | 195° |
| 2026-04-30 11:36 | 69.72870 | 18.94935 | 1078 ft | 125 kts | 195° |
| 2026-04-30 11:37 | 69.72028 | 18.94369 | 844 ft | 124 kts | 195° |
| 2026-04-30 11:37 | 69.71183 | 18.93803 | 636 ft | 125 kts | 194° |
| 2026-04-30 11:37 | 69.70333 | 18.93229 | 405 ft | 126 kts | 195° |
| 2026-04-30 11:37 | 69.69478 | 18.92659 | 144 ft | 127 kts | 194° |
| 2026-04-30 11:38 | 69.68645 | 18.92090 | 26 ft | 112 kts | 194° |
| 2026-04-30 11:38 | 69.68128 | 18.91755 | 33 ft | 33 kts | 193° |
| 2026-04-30 11:38 | 69.67976 | 18.91649 | 39 ft | 20 kts | 194° |
| 2026-04-30 11:38 | 69.67840 | 18.91559 | 41 ft | 18 kts | 191° |
| 2026-04-30 11:39 | 69.67735 | 18.91489 | 37 ft | 8 kts | 208° |
| 2026-04-30 11:39 | 69.67739 | 18.91303 | 37 ft | 13 kts | 287° |
| 2026-04-30 11:39 | 69.67787 | 18.91139 | 35 ft | 11 kts | 3° |
| 2026-04-30 11:39 | 69.67871 | 18.91195 | 35 ft | 14 kts | 14° |
| 2026-04-30 11:40 | 69.67973 | 18.91267 | 35 ft | 13 kts | 11° |
| 2026-04-30 11:40 | 69.67998 | 18.91160 | 35 ft | 9 kts | 275° |
| 2026-04-30 11:40 | 69.68015 | 18.90961 | 33 ft | 9 kts | 283° |
| 2026-04-30 11:40 | 69.68016 | 18.90945 | 34 ft | 0 kts | 283° |